Zim Yokohama — A8MY4 — position and weather

sailwx.info

Track history (hours):
 
Tides and Currents Weather Stations Pressure Air Temp Water Temp Dewpoint Dewpoint Depression Visibility Wind Speed Wind Dir Waves Ship Positions

Zim Yokohama

Last reported at 2018-Jul-17 20:48 UTC. Time now 2018-Jul-19 21:17 UTC.
Position N 35°04' E 129°22'.

Length 260 m; draft 12.1 m.

Type: Ship. MMSI: 636013436.

Date/timePositionNaut miles runAvg speedWind from/ knotsBaromVisibWave heightAir tempDewpointWater temp
2018-Jul-17 20:48N 35°04' E 129°22'719.9
2018-Jul-17 20:28N 34°59' E 129°16'1918.5
2018-Jul-17 19:26N 34°53' E 128°54'429 9.1
2018-Jul-15 20:19N 30°37' E 122°04'1 0.2
2018-Jul-15 16:19N 30°37' E 122°03'0 0.4
2018-Jul-15 16:00N 30°37' E 122°03'3 5.0
2018-Jul-15 15:22N 30°36' E 122°06'613.9
2018-Jul-15 14:58N 30°34' E 122°12'  
2018-Jul-10 21:13N 24°27' E 118°50'314.0
2018-Jul-10 20:59N 24°26' E 118°47'713.7
2018-Jul-10 20:30N 24°23' E 118°41'713.6
2018-Jul-10 20:00N 24°19' E 118°34'713.3
2018-Jul-10 19:30N 24°16' E 118°28'713.1
2018-Jul-10 19:00N 24°14' E 118°21'612.1
2018-Jul-10 18:30N 24°16' E 118°15'713.4
2018-Jul-10 18:00N 24°21' E 118°10'611.8
2018-Jul-10 17:30N 24°25' E 118°05'5 8.3
2018-Jul-10 16:56N 24°27' E 118°00'0 0.1
2018-Jul-10 16:29N 24°27' E 118°00'0 0.0
2018-Jul-10 15:59N 24°27' E 118°00'0 0.0
2018-Jul-10 15:26N 24°27' E 118°00'0 0.0
2018-Jul-10 14:56N 24°27' E 118°00'0 0.0
2018-Jul-10 14:29N 24°27' E 118°00'0 0.0
2018-Jul-10 13:56N 24°27' E 118°00'0 0.0
2018-Jul-10 13:29N 24°27' E 118°00'0 0.0
2018-Jul-10 13:00N 24°27' E 118°00'0 0.1
2018-Jul-10 12:26N 24°27' E 118°01'0 0.1
2018-Jul-10 12:00N 24°27' E 118°00'0 0.0
2018-Jul-10 11:30N 24°27' E 118°00'0 0.0
2018-Jul-10 10:56N 24°27' E 118°00'0 0.0
2018-Jul-10 10:30N 24°27' E 118°00'0 0.0
2018-Jul-10 09:56N 24°27' E 118°00'0 0.0
2018-Jul-10 09:29N 24°27' E 118°00'0 0.0
2018-Jul-10 09:00N 24°27' E 118°00'0 0.0
2018-Jul-10 08:29N 24°27' E 118°00'0 0.0
2018-Jul-10 07:59N 24°27' E 118°00'0 0.0
2018-Jul-10 07:26N 24°27' E 118°00'0 0.0
2018-Jul-10 06:59N 24°27' E 118°00'0 0.1
2018-Jul-10 06:30N 24°27' E 118°00'3 6.4
2018-Jul-10 06:00N 24°26' E 118°04'510.9
2018-Jul-10 05:30N 24°22' E 118°08'612.5
2018-Jul-10 05:00N 24°18' E 118°13'713.4
2018-Jul-10 04:29N 24°12' E 118°17'1 2.5
2018-Jul-10 03:59N 24°12' E 118°19'1 1.8
2018-Jul-10 03:30N 24°13' E 118°19'2 3.7
2018-Jul-10 02:55N 24°12' E 118°21'1 1.8
2018-Jul-10 02:30N 24°13' E 118°22'13 8.1
2018-Jul-10 00:54N 24°00' E 118°19'  
Track history (hours):
 
Tides and Currents Weather Stations Pressure Air Temp Water Temp Dewpoint Dewpoint Depression Visibility Wind Speed Wind Dir Waves Ship Positions

Zim Yokohama

Last reported at 2018-Jul-17 20:48 UTC. Time now 2018-Jul-19 21:17 UTC.
Position N 35°04' E 129°22'.

Length 260 m; draft 12.1 m.

Type: Ship. MMSI: 636013436.

Date/timePositionNaut miles runAvg speedWind from/ knotsBaromVisibWave heightAir tempDewpointWater temp
2018-Jul-17 20:48N 35°04' E 129°22'719.9
2018-Jul-17 20:28N 34°59' E 129°16'1918.5
2018-Jul-17 19:26N 34°53' E 128°54'429 9.1
2018-Jul-15 20:19N 30°37' E 122°04'1 0.2
2018-Jul-15 16:19N 30°37' E 122°03'0 0.4
2018-Jul-15 16:00N 30°37' E 122°03'3 5.0
2018-Jul-15 15:22N 30°36' E 122°06'613.9
2018-Jul-15 14:58N 30°34' E 122°12'  
2018-Jul-10 21:13N 24°27' E 118°50'314.0
2018-Jul-10 20:59N 24°26' E 118°47'713.7
2018-Jul-10 20:30N 24°23' E 118°41'713.6
2018-Jul-10 20:00N 24°19' E 118°34'713.3
2018-Jul-10 19:30N 24°16' E 118°28'713.1
2018-Jul-10 19:00N 24°14' E 118°21'612.1
2018-Jul-10 18:30N 24°16' E 118°15'713.4
2018-Jul-10 18:00N 24°21' E 118°10'611.8
2018-Jul-10 17:30N 24°25' E 118°05'5 8.3
2018-Jul-10 16:56N 24°27' E 118°00'0 0.1
2018-Jul-10 16:29N 24°27' E 118°00'0 0.0
2018-Jul-10 15:59N 24°27' E 118°00'0 0.0
2018-Jul-10 15:26N 24°27' E 118°00'0 0.0
2018-Jul-10 14:56N 24°27' E 118°00'0 0.0
2018-Jul-10 14:29N 24°27' E 118°00'0 0.0
2018-Jul-10 13:56N 24°27' E 118°00'0 0.0
2018-Jul-10 13:29N 24°27' E 118°00'0 0.0
2018-Jul-10 13:00N 24°27' E 118°00'0 0.1
2018-Jul-10 12:26N 24°27' E 118°01'0 0.1
2018-Jul-10 12:00N 24°27' E 118°00'0 0.0
2018-Jul-10 11:30N 24°27' E 118°00'0 0.0
2018-Jul-10 10:56N 24°27' E 118°00'0 0.0
2018-Jul-10 10:30N 24°27' E 118°00'0 0.0
2018-Jul-10 09:56N 24°27' E 118°00'0 0.0
2018-Jul-10 09:29N 24°27' E 118°00'0 0.0
2018-Jul-10 09:00N 24°27' E 118°00'0 0.0
2018-Jul-10 08:29N 24°27' E 118°00'0 0.0
2018-Jul-10 07:59N 24°27' E 118°00'0 0.0
2018-Jul-10 07:26N 24°27' E 118°00'0 0.0
2018-Jul-10 06:59N 24°27' E 118°00'0 0.1
2018-Jul-10 06:30N 24°27' E 118°00'3 6.4
2018-Jul-10 06:00N 24°26' E 118°04'510.9
2018-Jul-10 05:30N 24°22' E 118°08'612.5
2018-Jul-10 05:00N 24°18' E 118°13'713.4
2018-Jul-10 04:29N 24°12' E 118°17'1 2.5
2018-Jul-10 03:59N 24°12' E 118°19'1 1.8
2018-Jul-10 03:30N 24°13' E 118°19'2 3.7
2018-Jul-10 02:55N 24°12' E 118°21'1 1.8
2018-Jul-10 02:30N 24°13' E 118°22'13 8.1
2018-Jul-10 00:54N 24°00' E 118°19'  

Dump ship's entire track history